sensor_id;sensor_type;location;lat;lon;timestamp;temperature;humidity
5210;DHT22;2624;48.048;11.706;2024-01-25T00:01:39;7.60;99.90
5210;DHT22;2624;48.048;11.706;2024-01-25T00:06:40;7.60;99.90
5210;DHT22;2624;48.048;11.706;2024-01-25T00:11:44;7.60;99.90
5210;DHT22;2624;48.048;11.706;2024-01-25T00:16:45;7.60;99.90
5210;DHT22;2624;48.048;11.706;2024-01-25T00:21:47;7.60;99.90
5210;DHT22;2624;48.048;11.706;2024-01-25T00:26:50;7.60;99.90
5210;DHT22;2624;48.048;11.706;2024-01-25T00:31:52;7.50;99.90
5210;DHT22;2624;48.048;11.706;2024-01-25T00:36:54;7.50;99.90
5210;DHT22;2624;48.048;11.706;2024-01-25T00:42:03;7.50;99.90
5210;DHT22;2624;48.048;11.706;2024-01-25T00:47:06;7.50;99.90
5210;DHT22;2624;48.048;11.706;2024-01-25T00:52:09;7.50;99.90
5210;DHT22;2624;48.048;11.706;2024-01-25T00:57:13;7.40;99.90
5210;DHT22;2624;48.048;11.706;2024-01-25T01:02:15;7.40;99.90
5210;DHT22;2624;48.048;11.706;2024-01-25T01:07:18;7.40;99.90
5210;DHT22;2624;48.048;11.706;2024-01-25T01:12:21;7.40;99.90
5210;DHT22;2624;48.048;11.706;2024-01-25T01:17:23;7.40;99.90
5210;DHT22;2624;48.048;11.706;2024-01-25T01:22:24;7.40;99.90
5210;DHT22;2624;48.048;11.706;2024-01-25T01:27:28;7.40;99.90
5210;DHT22;2624;48.048;11.706;2024-01-25T01:32:29;7.40;99.90
5210;DHT22;2624;48.048;11.706;2024-01-25T01:37:31;7.40;99.90
5210;DHT22;2624;48.048;11.706;2024-01-25T01:42:34;7.40;99.90
5210;DHT22;2624;48.048;11.706;2024-01-25T01:47:36;7.40;99.90
5210;DHT22;2624;48.048;11.706;2024-01-25T01:52:38;7.30;99.90
5210;DHT22;2624;48.048;11.706;2024-01-25T01:57:41;7.30;99.90
5210;DHT22;2624;48.048;11.706;2024-01-25T02:02:44;7.30;99.90
5210;DHT22;2624;48.048;11.706;2024-01-25T02:07:46;7.30;99.90
5210;DHT22;2624;48.048;11.706;2024-01-25T02:12:49;7.30;99.90
5210;DHT22;2624;48.048;11.706;2024-01-25T02:17:51;7.30;99.90
5210;DHT22;2624;48.048;11.706;2024-01-25T02:22:54;7.30;99.90
5210;DHT22;2624;48.048;11.706;2024-01-25T02:27:56;7.30;99.90
5210;DHT22;2624;48.048;11.706;2024-01-25T02:32:58;7.30;99.90
5210;DHT22;2624;48.048;11.706;2024-01-25T02:38:01;7.30;99.90
5210;DHT22;2624;48.048;11.706;2024-01-25T02:43:03;7.20;99.90
5210;DHT22;2624;48.048;11.706;2024-01-25T02:48:05;7.20;99.90
5210;DHT22;2624;48.048;11.706;2024-01-25T02:53:08;7.20;99.90
5210;DHT22;2624;48.048;11.706;2024-01-25T02:58:10;7.20;99.90
5210;DHT22;2624;48.048;11.706;2024-01-25T03:03:12;7.20;99.90
5210;DHT22;2624;48.048;11.706;2024-01-25T03:08:15;7.20;99.90
5210;DHT22;2624;48.048;11.706;2024-01-25T03:13:17;7.20;99.90
5210;DHT22;2624;48.048;11.706;2024-01-25T03:18:18;7.10;99.90
5210;DHT22;2624;48.048;11.706;2024-01-25T03:23:22;7.20;99.90
5210;DHT22;2624;48.048;11.706;2024-01-25T03:28:23;7.10;99.90
5210;DHT22;2624;48.048;11.706;2024-01-25T03:33:25;7.10;99.90
5210;DHT22;2624;48.048;11.706;2024-01-25T03:38:30;7.20;99.90
5210;DHT22;2624;48.048;11.706;2024-01-25T03:43:31;7.10;99.90
5210;DHT22;2624;48.048;11.706;2024-01-25T03:48:33;7.10;99.90
5210;DHT22;2624;48.048;11.706;2024-01-25T03:53:36;7.10;99.90
5210;DHT22;2624;48.048;11.706;2024-01-25T03:58:38;7.10;99.90
5210;DHT22;2624;48.048;11.706;2024-01-25T04:03:40;7.10;99.90
5210;DHT22;2624;48.048;11.706;2024-01-25T04:08:43;7.10;99.90
5210;DHT22;2624;48.048;11.706;2024-01-25T04:13:45;7.10;99.90
5210;DHT22;2624;48.048;11.706;2024-01-25T04:18:48;7.00;99.90
5210;DHT22;2624;48.048;11.706;2024-01-25T04:23:51;7.00;99.90
5210;DHT22;2624;48.048;11.706;2024-01-25T04:28:53;7.00;99.90
5210;DHT22;2624;48.048;11.706;2024-01-25T04:33:54;7.00;99.90
5210;DHT22;2624;48.048;11.706;2024-01-25T04:38:57;7.00;99.90
5210;DHT22;2624;48.048;11.706;2024-01-25T04:43:59;7.00;99.90
5210;DHT22;2624;48.048;11.706;2024-01-25T04:49:01;7.00;99.90
5210;DHT22;2624;48.048;11.706;2024-01-25T04:54:04;7.00;99.90
5210;DHT22;2624;48.048;11.706;2024-01-25T04:59:07;7.00;99.90
5210;DHT22;2624;48.048;11.706;2024-01-25T05:04:08;6.90;99.90
5210;DHT22;2624;48.048;11.706;2024-01-25T05:09:11;6.90;99.90
5210;DHT22;2624;48.048;11.706;2024-01-25T05:14:14;7.00;99.90
5210;DHT22;2624;48.048;11.706;2024-01-25T05:19:15;6.90;99.90
5210;DHT22;2624;48.048;11.706;2024-01-25T05:24:19;6.90;99.90
5210;DHT22;2624;48.048;11.706;2024-01-25T05:29:21;6.90;99.90
5210;DHT22;2624;48.048;11.706;2024-01-25T05:34:23;6.90;99.90
5210;DHT22;2624;48.048;11.706;2024-01-25T05:39:26;6.90;99.90
5210;DHT22;2624;48.048;11.706;2024-01-25T05:44:28;6.90;99.90
5210;DHT22;2624;48.048;11.706;2024-01-25T05:49:30;6.90;99.90
5210;DHT22;2624;48.048;11.706;2024-01-25T05:54:33;6.90;99.90
5210;DHT22;2624;48.048;11.706;2024-01-25T05:59:35;6.90;99.90
5210;DHT22;2624;48.048;11.706;2024-01-25T06:04:37;6.90;99.90
5210;DHT22;2624;48.048;11.706;2024-01-25T06:09:40;6.80;99.90
5210;DHT22;2624;48.048;11.706;2024-01-25T06:14:42;6.80;99.90
5210;DHT22;2624;48.048;11.706;2024-01-25T06:19:44;6.80;99.90
5210;DHT22;2624;48.048;11.706;2024-01-25T06:24:47;6.80;99.90
5210;DHT22;2624;48.048;11.706;2024-01-25T06:29:48;6.80;99.90
5210;DHT22;2624;48.048;11.706;2024-01-25T06:34:50;6.80;99.90
5210;DHT22;2624;48.048;11.706;2024-01-25T06:39:55;6.80;99.90
5210;DHT22;2624;48.048;11.706;2024-01-25T06:44:56;6.80;99.90
5210;DHT22;2624;48.048;11.706;2024-01-25T06:49:58;6.80;99.90
5210;DHT22;2624;48.048;11.706;2024-01-25T06:55:01;6.70;99.90
5210;DHT22;2624;48.048;11.706;2024-01-25T07:00:04;6.70;99.90
5210;DHT22;2624;48.048;11.706;2024-01-25T07:05:07;6.70;99.90
5210;DHT22;2624;48.048;11.706;2024-01-25T07:10:10;6.70;99.90
5210;DHT22;2624;48.048;11.706;2024-01-25T07:15:12;6.70;99.90
5210;DHT22;2624;48.048;11.706;2024-01-25T07:20:14;6.70;99.90
5210;DHT22;2624;48.048;11.706;2024-01-25T07:25:17;6.70;99.90
5210;DHT22;2624;48.048;11.706;2024-01-25T07:30:19;6.60;99.90
5210;DHT22;2624;48.048;11.706;2024-01-25T07:35:20;6.70;99.90
5210;DHT22;2624;48.048;11.706;2024-01-25T07:40:25;6.70;99.90
5210;DHT22;2624;48.048;11.706;2024-01-25T07:45:26;6.60;99.90
5210;DHT22;2624;48.048;11.706;2024-01-25T07:50:28;6.60;99.90
5210;DHT22;2624;48.048;11.706;2024-01-25T07:55:31;6.60;99.90
5210;DHT22;2624;48.048;11.706;2024-01-25T08:00:33;6.60;99.90
5210;DHT22;2624;48.048;11.706;2024-01-25T08:05:35;6.60;99.90
5210;DHT22;2624;48.048;11.706;2024-01-25T08:10:38;6.60;99.90
5210;DHT22;2624;48.048;11.706;2024-01-25T08:15:40;6.60;99.90
5210;DHT22;2624;48.048;11.706;2024-01-25T08:20:42;6.60;99.90
5210;DHT22;2624;48.048;11.706;2024-01-25T08:25:45;6.60;99.90
5210;DHT22;2624;48.048;11.706;2024-01-25T08:30:47;6.60;99.90
5210;DHT22;2624;48.048;11.706;2024-01-25T08:35:48;6.60;99.90
5210;DHT22;2624;48.048;11.706;2024-01-25T08:40:51;6.60;99.90
5210;DHT22;2624;48.048;11.706;2024-01-25T08:45:53;6.60;99.90
5210;DHT22;2624;48.048;11.706;2024-01-25T08:50:55;6.60;99.90
5210;DHT22;2624;48.048;11.706;2024-01-25T08:55:58;6.70;99.90
5210;DHT22;2624;48.048;11.706;2024-01-25T09:01:01;6.60;99.90
5210;DHT22;2624;48.048;11.706;2024-01-25T09:06:03;6.60;99.90
5210;DHT22;2624;48.048;11.706;2024-01-25T09:11:07;6.60;99.90
5210;DHT22;2624;48.048;11.706;2024-01-25T09:16:09;6.60;99.90
5210;DHT22;2624;48.048;11.706;2024-01-25T09:21:11;6.60;99.90
5210;DHT22;2624;48.048;11.706;2024-01-25T09:26:14;6.60;99.90
5210;DHT22;2624;48.048;11.706;2024-01-25T09:31:16;6.70;99.90
5210;DHT22;2624;48.048;11.706;2024-01-25T09:36:17;6.70;99.90
5210;DHT22;2624;48.048;11.706;2024-01-25T09:41:21;6.90;99.90
5210;DHT22;2624;48.048;11.706;2024-01-25T09:46:23;7.00;99.90
5210;DHT22;2624;48.048;11.706;2024-01-25T09:51:26;6.90;99.90
5210;DHT22;2624;48.048;11.706;2024-01-25T09:56:31;7.00;99.90
5210;DHT22;2624;48.048;11.706;2024-01-25T10:01:33;7.10;99.90
5210;DHT22;2624;48.048;11.706;2024-01-25T10:06:35;7.00;99.90
5210;DHT22;2624;48.048;11.706;2024-01-25T10:11:38;7.10;99.90
5210;DHT22;2624;48.048;11.706;2024-01-25T10:16:40;7.40;99.90
5210;DHT22;2624;48.048;11.706;2024-01-25T10:21:41;7.40;99.90
5210;DHT22;2624;48.048;11.706;2024-01-25T10:26:45;7.40;99.90
5210;DHT22;2624;48.048;11.706;2024-01-25T10:31:47;7.40;99.90
5210;DHT22;2624;48.048;11.706;2024-01-25T10:36:50;7.40;99.90
5210;DHT22;2624;48.048;11.706;2024-01-25T10:41:54;7.90;99.90
5210;DHT22;2624;48.048;11.706;2024-01-25T10:46:56;7.70;99.90
5210;DHT22;2624;48.048;11.706;2024-01-25T10:51:58;7.50;99.90
5210;DHT22;2624;48.048;11.706;2024-01-25T10:57:02;7.40;99.90
5210;DHT22;2624;48.048;11.706;2024-01-25T11:02:07;7.40;99.90
5210;DHT22;2624;48.048;11.706;2024-01-25T11:07:09;7.60;99.90
5210;DHT22;2624;48.048;11.706;2024-01-25T11:12:13;7.50;99.90
5210;DHT22;2624;48.048;11.706;2024-01-25T11:17:15;7.60;99.90
5210;DHT22;2624;48.048;11.706;2024-01-25T11:22:19;7.60;99.90
5210;DHT22;2624;48.048;11.706;2024-01-25T11:27:23;7.60;99.90
5210;DHT22;2624;48.048;11.706;2024-01-25T11:32:25;7.50;99.90
5210;DHT22;2624;48.048;11.706;2024-01-25T11:37:27;7.50;99.90
5210;DHT22;2624;48.048;11.706;2024-01-25T11:42:30;7.50;99.90
5210;DHT22;2624;48.048;11.706;2024-01-25T11:47:32;7.80;99.90
5210;DHT22;2624;48.048;11.706;2024-01-25T11:52:33;7.90;99.90
5210;DHT22;2624;48.048;11.706;2024-01-25T11:57:38;7.90;99.90
5210;DHT22;2624;48.048;11.706;2024-01-25T12:02:42;7.90;99.90
5210;DHT22;2624;48.048;11.706;2024-01-25T12:07:44;7.90;99.90
5210;DHT22;2624;48.048;11.706;2024-01-25T12:12:48;7.80;99.90
5210;DHT22;2624;48.048;11.706;2024-01-25T12:17:50;8.00;99.90
5210;DHT22;2624;48.048;11.706;2024-01-25T12:22:51;7.80;99.90
5210;DHT22;2624;48.048;11.706;2024-01-25T12:27:54;7.80;99.90
5210;DHT22;2624;48.048;11.706;2024-01-25T12:32:56;7.80;99.90
5210;DHT22;2624;48.048;11.706;2024-01-25T12:37:58;7.90;99.90
5210;DHT22;2624;48.048;11.706;2024-01-25T12:43:01;7.90;99.90
5210;DHT22;2624;48.048;11.706;2024-01-25T12:48:04;8.00;99.90
5210;DHT22;2624;48.048;11.706;2024-01-25T12:53:07;8.00;99.90
5210;DHT22;2624;48.048;11.706;2024-01-25T12:58:11;7.90;99.90
5210;DHT22;2624;48.048;11.706;2024-01-25T13:03:13;8.00;99.90
5210;DHT22;2624;48.048;11.706;2024-01-25T13:08:15;7.90;99.90
5210;DHT22;2624;48.048;11.706;2024-01-25T13:13:18;8.00;99.90
5210;DHT22;2624;48.048;11.706;2024-01-25T13:18:21;8.00;99.90
5210;DHT22;2624;48.048;11.706;2024-01-25T13:23:22;8.00;99.90
5210;DHT22;2624;48.048;11.706;2024-01-25T13:28:26;8.00;99.90
5210;DHT22;2624;48.048;11.706;2024-01-25T13:33:27;8.30;99.90
5210;DHT22;2624;48.048;11.706;2024-01-25T13:38:29;8.10;99.90
5210;DHT22;2624;48.048;11.706;2024-01-25T13:43:32;8.20;99.90
5210;DHT22;2624;48.048;11.706;2024-01-25T13:48:34;8.10;99.90
5210;DHT22;2624;48.048;11.706;2024-01-25T13:53:36;8.10;99.90
5210;DHT22;2624;48.048;11.706;2024-01-25T13:58:39;8.10;99.90
5210;DHT22;2624;48.048;11.706;2024-01-25T14:03:40;8.30;99.90
5210;DHT22;2624;48.048;11.706;2024-01-25T14:08:42;8.10;99.90
5210;DHT22;2624;48.048;11.706;2024-01-25T14:13:45;8.10;99.90
5210;DHT22;2624;48.048;11.706;2024-01-25T14:18:47;8.10;99.90
5210;DHT22;2624;48.048;11.706;2024-01-25T14:23:49;8.10;99.90
5210;DHT22;2624;48.048;11.706;2024-01-25T14:28:52;8.20;99.90
5210;DHT22;2624;48.048;11.706;2024-01-25T14:33:54;8.10;99.90
5210;DHT22;2624;48.048;11.706;2024-01-25T14:38:55;8.10;99.90
5210;DHT22;2624;48.048;11.706;2024-01-25T14:43:59;8.00;99.90
5210;DHT22;2624;48.048;11.706;2024-01-25T14:49:00;8.10;99.90
5210;DHT22;2624;48.048;11.706;2024-01-25T14:54:02;8.10;99.90
5210;DHT22;2624;48.048;11.706;2024-01-25T14:59:05;8.10;99.90
5210;DHT22;2624;48.048;11.706;2024-01-25T15:04:07;8.10;99.90
5210;DHT22;2624;48.048;11.706;2024-01-25T15:09:09;8.00;99.90
5210;DHT22;2624;48.048;11.706;2024-01-25T15:14:13;8.00;99.90
5210;DHT22;2624;48.048;11.706;2024-01-25T15:19:15;8.00;99.90
5210;DHT22;2624;48.048;11.706;2024-01-25T15:24:17;8.10;99.90
5210;DHT22;2624;48.048;11.706;2024-01-25T15:29:20;8.10;99.90
5210;DHT22;2624;48.048;11.706;2024-01-25T15:34:22;8.00;99.90
5210;DHT22;2624;48.048;11.706;2024-01-25T15:39:24;8.00;99.90
5210;DHT22;2624;48.048;11.706;2024-01-25T15:44:27;8.00;99.90
5210;DHT22;2624;48.048;11.706;2024-01-25T15:49:28;7.90;99.90
5210;DHT22;2624;48.048;11.706;2024-01-25T15:54:30;7.90;99.90
5210;DHT22;2624;48.048;11.706;2024-01-25T15:59:33;7.90;99.90
5210;DHT22;2624;48.048;11.706;2024-01-25T16:04:35;7.90;99.90
5210;DHT22;2624;48.048;11.706;2024-01-25T16:09:37;7.90;99.90
5210;DHT22;2624;48.048;11.706;2024-01-25T16:14:40;7.90;99.90
5210;DHT22;2624;48.048;11.706;2024-01-25T16:19:42;7.90;99.90
5210;DHT22;2624;48.048;11.706;2024-01-25T16:24:44;7.90;99.90
5210;DHT22;2624;48.048;11.706;2024-01-25T16:29:47;7.90;99.90
5210;DHT22;2624;48.048;11.706;2024-01-25T16:34:48;7.80;99.90
5210;DHT22;2624;48.048;11.706;2024-01-25T16:39:50;7.80;99.90
5210;DHT22;2624;48.048;11.706;2024-01-25T16:44:53;7.80;99.90
5210;DHT22;2624;48.048;11.706;2024-01-25T16:49:55;7.80;99.90
5210;DHT22;2624;48.048;11.706;2024-01-25T16:54:57;7.70;99.90
5210;DHT22;2624;48.048;11.706;2024-01-25T17:00:00;7.60;99.90
5210;DHT22;2624;48.048;11.706;2024-01-25T17:05:03;7.70;99.90
5210;DHT22;2624;48.048;11.706;2024-01-25T17:10:05;7.60;99.90
5210;DHT22;2624;48.048;11.706;2024-01-25T17:15:09;7.60;99.90
5210;DHT22;2624;48.048;11.706;2024-01-25T17:20:11;7.60;99.90
5210;DHT22;2624;48.048;11.706;2024-01-25T17:25:12;7.60;99.90
5210;DHT22;2624;48.048;11.706;2024-01-25T17:30:16;7.60;99.90
5210;DHT22;2624;48.048;11.706;2024-01-25T17:35:18;7.60;99.90
5210;DHT22;2624;48.048;11.706;2024-01-25T17:40:19;7.60;99.90
5210;DHT22;2624;48.048;11.706;2024-01-25T17:45:25;7.50;99.90
5210;DHT22;2624;48.048;11.706;2024-01-25T17:50:27;7.50;99.90
5210;DHT22;2624;48.048;11.706;2024-01-25T17:55:29;7.40;99.90
5210;DHT22;2624;48.048;11.706;2024-01-25T18:00:32;7.50;99.90
5210;DHT22;2624;48.048;11.706;2024-01-25T18:05:33;7.40;99.90
5210;DHT22;2624;48.048;11.706;2024-01-25T18:10:35;7.40;99.90
5210;DHT22;2624;48.048;11.706;2024-01-25T18:15:38;7.40;99.90
5210;DHT22;2624;48.048;11.706;2024-01-25T18:20:40;7.30;99.90
5210;DHT22;2624;48.048;11.706;2024-01-25T18:25:42;7.40;99.90
5210;DHT22;2624;48.048;11.706;2024-01-25T18:30:45;7.30;99.90
5210;DHT22;2624;48.048;11.706;2024-01-25T18:35:47;7.40;99.90
5210;DHT22;2624;48.048;11.706;2024-01-25T18:40:50;7.40;99.90
5210;DHT22;2624;48.048;11.706;2024-01-25T18:45:53;7.30;99.90
5210;DHT22;2624;48.048;11.706;2024-01-25T18:50:54;7.30;99.90
5210;DHT22;2624;48.048;11.706;2024-01-25T18:55:57;7.30;99.90
5210;DHT22;2624;48.048;11.706;2024-01-25T19:01:01;7.30;99.90
5210;DHT22;2624;48.048;11.706;2024-01-25T19:06:04;7.20;99.90
5210;DHT22;2624;48.048;11.706;2024-01-25T19:11:06;7.10;99.90
5210;DHT22;2624;48.048;11.706;2024-01-25T19:16:09;7.10;99.90
5210;DHT22;2624;48.048;11.706;2024-01-25T19:21:11;7.20;99.90
5210;DHT22;2624;48.048;11.706;2024-01-25T19:26:13;7.20;99.90
5210;DHT22;2624;48.048;11.706;2024-01-25T19:31:16;7.10;99.90
5210;DHT22;2624;48.048;11.706;2024-01-25T19:36:18;7.10;99.90
5210;DHT22;2624;48.048;11.706;2024-01-25T19:41:20;7.10;99.90
5210;DHT22;2624;48.048;11.706;2024-01-25T19:46:23;7.00;99.90
5210;DHT22;2624;48.048;11.706;2024-01-25T19:51:25;7.00;99.90
5210;DHT22;2624;48.048;11.706;2024-01-25T19:56:27;7.00;99.90
5210;DHT22;2624;48.048;11.706;2024-01-25T20:01:30;7.00;99.90
5210;DHT22;2624;48.048;11.706;2024-01-25T20:06:34;7.10;99.90
5210;DHT22;2624;48.048;11.706;2024-01-25T20:11:38;7.00;99.90
5210;DHT22;2624;48.048;11.706;2024-01-25T20:16:41;7.10;99.90
5210;DHT22;2624;48.048;11.706;2024-01-25T20:21:43;7.10;99.90
5210;DHT22;2624;48.048;11.706;2024-01-25T20:26:45;7.10;99.90
5210;DHT22;2624;48.048;11.706;2024-01-25T20:31:48;7.10;99.90
5210;DHT22;2624;48.048;11.706;2024-01-25T20:36:50;7.10;99.90
5210;DHT22;2624;48.048;11.706;2024-01-25T20:41:52;7.10;99.90
5210;DHT22;2624;48.048;11.706;2024-01-25T20:46:55;7.10;99.90
5210;DHT22;2624;48.048;11.706;2024-01-25T20:51:57;7.10;99.90
5210;DHT22;2624;48.048;11.706;2024-01-25T20:56:58;7.10;99.90
5210;DHT22;2624;48.048;11.706;2024-01-25T21:02:02;7.10;99.90
5210;DHT22;2624;48.048;11.706;2024-01-25T21:07:05;7.10;99.90
5210;DHT22;2624;48.048;11.706;2024-01-25T21:12:08;7.10;99.90
5210;DHT22;2624;48.048;11.706;2024-01-25T21:17:11;7.10;99.90
5210;DHT22;2624;48.048;11.706;2024-01-25T21:22:13;7.10;99.90
5210;DHT22;2624;48.048;11.706;2024-01-25T21:27:14;7.10;99.90
5210;DHT22;2624;48.048;11.706;2024-01-25T21:32:17;7.10;99.90
5210;DHT22;2624;48.048;11.706;2024-01-25T21:37:19;7.10;99.90
5210;DHT22;2624;48.048;11.706;2024-01-25T21:42:21;7.10;99.90
5210;DHT22;2624;48.048;11.706;2024-01-25T21:47:24;7.10;99.90
5210;DHT22;2624;48.048;11.706;2024-01-25T21:52:26;7.10;99.90
5210;DHT22;2624;48.048;11.706;2024-01-25T21:57:28;7.10;99.90
5210;DHT22;2624;48.048;11.706;2024-01-25T22:02:31;7.10;99.90
5210;DHT22;2624;48.048;11.706;2024-01-25T22:07:32;7.10;99.90
5210;DHT22;2624;48.048;11.706;2024-01-25T22:12:34;7.00;99.90
5210;DHT22;2624;48.048;11.706;2024-01-25T22:17:37;7.00;99.90
5210;DHT22;2624;48.048;11.706;2024-01-25T22:22:39;7.00;99.90
5210;DHT22;2624;48.048;11.706;2024-01-25T22:27:41;7.00;99.90
5210;DHT22;2624;48.048;11.706;2024-01-25T22:32:44;7.00;99.90
5210;DHT22;2624;48.048;11.706;2024-01-25T22:37:46;7.00;99.90
5210;DHT22;2624;48.048;11.706;2024-01-25T22:42:48;7.00;99.90
5210;DHT22;2624;48.048;11.706;2024-01-25T22:47:51;7.00;99.90
5210;DHT22;2624;48.048;11.706;2024-01-25T22:52:53;7.00;99.90
5210;DHT22;2624;48.048;11.706;2024-01-25T22:57:55;7.00;99.90
5210;DHT22;2624;48.048;11.706;2024-01-25T23:02:59;7.00;99.90
5210;DHT22;2624;48.048;11.706;2024-01-25T23:08:00;7.00;99.90
5210;DHT22;2624;48.048;11.706;2024-01-25T23:13:03;6.90;99.90
5210;DHT22;2624;48.048;11.706;2024-01-25T23:18:06;6.90;99.90
5210;DHT22;2624;48.048;11.706;2024-01-25T23:23:08;7.00;99.90
5210;DHT22;2624;48.048;11.706;2024-01-25T23:28:10;6.90;99.90
5210;DHT22;2624;48.048;11.706;2024-01-25T23:33:13;6.90;99.90
5210;DHT22;2624;48.048;11.706;2024-01-25T23:38:15;6.90;99.90
5210;DHT22;2624;48.048;11.706;2024-01-25T23:43:17;6.90;99.90
5210;DHT22;2624;48.048;11.706;2024-01-25T23:48:20;6.90;99.90
5210;DHT22;2624;48.048;11.706;2024-01-25T23:53:22;6.90;99.90
5210;DHT22;2624;48.048;11.706;2024-01-25T23:58:24;6.90;99.90
